CPX304 Details

Departure: Tokyo-Narita International Airport (RJAA)
Arrival: Guam International Airport (PGUM) at N/A
Route: CUPID Y820 SUNNS Y820 ADKAK G223 DAGDA A337 NOGAK A337 TEGOD G205 GUYES
Notes:


Current Weather Information
RJAA 251130Z 17004KT 9999 FEW025 BKN/// 23/19 Q1011 NOSIG RMK 1CU025 A2985
PGUM 251134Z 13005KT 10SM FEW016 SCT027 SCT037 28/25 A2985 RMK AO2 RAB17E26 P0000 T02780250